Time;durP1;ratioP1;P1;durP2;ratioP2;P2;SDS_P1;SDS_P2;PMS_P1;PMS_P2;Temp;Humidity;BMP_temperature;BMP_pressure;BME280_temperature;BME280_humidity;BME280_pressure;Samples;Min_cycle;Max_cycle;Signal;HPM_P1;HPM_P2
2023/03/17 00:00:09;;;;;;;5.20;3.60;;;;;;;;;;5052165;28;20063;-66
2023/03/17 00:02:35;;;;;;;4.93;3.38;;;;;;;;;;5052060;28;20033;-67
2023/03/17 00:05:02;;;;;;;4.90;3.58;;;;;;;;;;5052095;28;20107;-66
2023/03/17 00:07:28;;;;;;;5.00;3.47;;;;;;;;;;5051941;28;20036;-65
2023/03/17 00:09:54;;;;;;;5.15;3.70;;;;;;;;;;5052174;28;20032;-66
2023/03/17 00:12:20;;;;;;;4.78;3.30;;;;;;;;;;5051849;28;20025;-66
2023/03/17 00:14:46;;;;;;;6.15;3.70;;;;;;;;;;5052052;28;20112;-65
2023/03/17 00:17:14;;;;;;;4.45;3.60;;;;;;;;;;5052181;28;20100;-66
2023/03/17 00:19:42;;;;;;;4.28;3.38;;;;;;;;;;5051872;28;20074;-67
2023/03/17 00:22:17;;;;;;;5.72;3.85;;;;;;;;;;5052128;28;20025;-66
2023/03/17 00:24:43;;;;;;;5.38;3.95;;;;;;;;;;5051969;28;20025;-66
2023/03/17 00:27:12;;;;;;;4.45;3.55;;;;;;;;;;5051665;28;20032;-67
2023/03/17 00:29:39;;;;;;;4.63;3.42;;;;;;;;;;5051913;28;20079;-66
2023/03/17 00:32:16;;;;;;;4.75;3.45;;;;;;;;;;5052070;28;20028;-65
2023/03/17 00:34:43;;;;;;;4.78;3.47;;;;;;;;;;5051942;28;20104;-65
2023/03/17 00:37:12;;;;;;;4.53;3.33;;;;;;;;;;5053237;28;20061;-66
2023/03/17 00:39:40;;;;;;;5.18;3.58;;;;;;;;;;5055470;28;20543;-66
2023/03/17 00:42:06;;;;;;;5.13;3.60;;;;;;;;;;5055424;28;20032;-65
2023/03/17 00:44:33;;;;;;;4.65;3.58;;;;;;;;;;5055460;28;20025;-65
2023/03/17 00:46:59;;;;;;;4.68;3.13;;;;;;;;;;5055349;28;20102;-65
2023/03/17 00:49:25;;;;;;;5.20;3.60;;;;;;;;;;5055370;28;20147;-66
2023/03/17 00:51:51;;;;;;;5.47;3.25;;;;;;;;;;5043482;28;20497;-65
2023/03/17 00:54:18;;;;;;;4.25;3.38;;;;;;;;;;5035254;28;20025;-66
2023/03/17 00:56:45;;;;;;;4.30;3.47;;;;;;;;;;5035654;28;20386;-66
2023/03/17 00:59:28;;;;;;;4.63;3.30;;;;;;;;;;5035331;28;20139;-66
2023/03/17 01:01:55;;;;;;;4.95;3.45;;;;;;;;;;5035550;28;20032;-65
2023/03/17 01:04:21;;;;;;;4.22;3.38;;;;;;;;;;5035049;28;20021;-65
2023/03/17 01:06:49;;;;;;;4.75;3.40;;;;;;;;;;5033775;28;20025;-66
2023/03/17 01:09:15;;;;;;;3.97;3.17;;;;;;;;;;5035010;28;20160;-66
2023/03/17 01:11:41;;;;;;;5.00;3.53;;;;;;;;;;5035075;28;20025;-66
2023/03/17 01:14:09;;;;;;;4.78;3.50;;;;;;;;;;5034856;28;20032;-65
2023/03/17 01:16:35;;;;;;;3.72;3.30;;;;;;;;;;5035081;28;20068;-66
2023/03/17 01:19:00;;;;;;;5.30;3.30;;;;;;;;;;5035010;28;20044;-67
2023/03/17 01:21:26;;;;;;;4.50;3.28;;;;;;;;;;5034954;28;20056;-66
2023/03/17 01:23:52;;;;;;;4.03;3.25;;;;;;;;;;5034696;28;20030;-65
2023/03/17 01:26:17;;;;;;;5.85;3.53;;;;;;;;;;5034842;28;20056;-67
2023/03/17 01:28:44;;;;;;;4.35;3.58;;;;;;;;;;5034812;28;20030;-65
2023/03/17 01:31:11;;;;;;;3.67;3.22;;;;;;;;;;5034657;28;20108;-65
2023/03/17 01:33:37;;;;;;;3.58;2.95;;;;;;;;;;5034384;28;20084;-66
2023/03/17 01:36:02;;;;;;;4.90;3.30;;;;;;;;;;5034639;28;20033;-65
2023/03/17 01:38:28;;;;;;;4.82;3.70;;;;;;;;;;5034339;28;20405;-65
2023/03/17 01:40:54;;;;;;;3.50;3.03;;;;;;;;;;5034740;28;20029;-66
2023/03/17 01:43:29;;;;;;;3.85;3.08;;;;;;;;;;5034280;28;20077;-66
2023/03/17 01:46:34;;;;;;;4.40;3.30;;;;;;;;;;5034490;28;20382;-65
2023/03/17 01:49:21;;;;;;;4.00;3.38;;;;;;;;;;5030430;28;20037;-65
2023/03/17 01:52:07;;;;;;;4.40;3.55;;;;;;;;;;5034265;28;20032;-65
2023/03/17 01:54:57;;;;;;;4.15;3.47;;;;;;;;;;5034053;28;20481;-65
2023/03/17 01:57:28;;;;;;;4.78;3.33;;;;;;;;;;5034265;28;20108;-65
2023/03/17 02:00:08;;;;;;;6.75;3.58;;;;;;;;;;5034124;28;20064;-65
2023/03/17 02:02:36;;;;;;;4.80;3.43;;;;;;;;;;5034192;28;20033;-65
2023/03/17 02:05:10;;;;;;;5.00;3.40;;;;;;;;;;5034106;28;20063;-67
2023/03/17 02:07:37;;;;;;;4.43;3.20;;;;;;;;;;5033921;28;20079;-66
2023/03/17 02:10:04;;;;;;;5.10;3.38;;;;;;;;;;5034004;28;20037;-65
2023/03/17 02:12:29;;;;;;;4.47;3.50;;;;;;;;;;5033937;28;20033;-65
2023/03/17 02:14:56;;;;;;;5.22;3.45;;;;;;;;;;5033905;28;20029;-66
2023/03/17 02:17:24;;;;;;;5.50;3.35;;;;;;;;;;5033849;28;20080;-66
2023/03/17 02:19:50;;;;;;;4.03;3.28;;;;;;;;;;5032545;28;20116;-66
2023/03/17 02:22:18;;;;;;;5.45;3.65;;;;;;;;;;5033696;28;20025;-66
2023/03/17 02:24:49;;;;;;;3.70;3.10;;;;;;;;;;5033741;28;20421;-66
2023/03/17 02:27:20;;;;;;;4.68;3.25;;;;;;;;;;5033485;28;20052;-66
2023/03/17 02:29:46;;;;;;;4.80;3.88;;;;;;;;;;5033918;28;20025;-66
2023/03/17 02:32:14;;;;;;;4.68;3.50;;;;;;;;;;5033438;28;20017;-66
2023/03/17 02:34:40;;;;;;;4.80;3.38;;;;;;;;;;5033648;28;20426;-66
2023/03/17 02:37:06;;;;;;;4.75;3.42;;;;;;;;;;5033435;28;20021;-65
2023/03/17 02:39:32;;;;;;;4.78;3.88;;;;;;;;;;5033251;28;20045;-66
2023/03/17 02:41:58;;;;;;;4.63;3.58;;;;;;;;;;5033274;28;20030;-65
2023/03/17 02:44:24;;;;;;;4.80;3.20;;;;;;;;;;5033282;28;20022;-66
2023/03/17 02:46:50;;;;;;;4.85;3.20;;;;;;;;;;5033123;28;20037;-65
2023/03/17 02:49:16;;;;;;;4.75;3.22;;;;;;;;;;5033240;28;20033;-65
2023/03/17 02:51:42;;;;;;;5.40;3.30;;;;;;;;;;5033163;28;20033;-66
2023/03/17 02:54:08;;;;;;;3.55;2.90;;;;;;;;;;5033040;28;20149;-65
2023/03/17 02:56:33;;;;;;;5.05;3.80;;;;;;;;;;5033057;28;20380;-65
2023/03/17 02:58:59;;;;;;;3.95;3.50;;;;;;;;;;5032567;28;20076;-66
2023/03/17 03:01:25;;;;;;;4.53;3.40;;;;;;;;;;5032736;28;20025;-66
2023/03/17 03:03:51;;;;;;;4.75;3.42;;;;;;;;;;5047501;28;20025;-66
2023/03/17 03:06:17;;;;;;;5.07;3.58;;;;;;;;;;5052724;28;20029;-67
2023/03/17 03:08:43;;;;;;;5.88;3.40;;;;;;;;;;5051628;28;20033;-67
2023/03/17 03:11:09;;;;;;;4.18;3.40;;;;;;;;;;5052788;28;20055;-67
2023/03/17 03:13:36;;;;;;;4.53;3.47;;;;;;;;;;5052816;28;20028;-66
2023/03/17 03:16:01;;;;;;;3.65;3.22;;;;;;;;;;5052731;28;20045;-67
2023/03/17 03:18:27;;;;;;;3.88;3.22;;;;;;;;;;5052890;28;20622;-66
2023/03/17 03:20:52;;;;;;;5.78;3.75;;;;;;;;;;5052527;28;20465;-67
2023/03/17 03:23:18;;;;;;;4.13;3.30;;;;;;;;;;5052462;28;20025;-67
2023/03/17 03:25:44;;;;;;;4.88;3.42;;;;;;;;;;5052449;28;20124;-67
2023/03/17 03:28:10;;;;;;;5.05;3.58;;;;;;;;;;5067883;28;20437;-68
2023/03/17 03:30:37;;;;;;;5.68;3.88;;;;;;;;;;5052462;28;20112;-67
2023/03/17 03:33:03;;;;;;;4.97;3.50;;;;;;;;;;5050993;28;20100;-66
2023/03/17 03:35:29;;;;;;;4.68;3.42;;;;;;;;;;5047998;28;20030;-68
2023/03/17 03:37:55;;;;;;;4.13;2.88;;;;;;;;;;5032269;28;20029;-67
2023/03/17 03:40:22;;;;;;;4.63;3.80;;;;;;;;;;5046564;28;20473;-66
2023/03/17 03:42:48;;;;;;;4.22;3.22;;;;;;;;;;5050072;28;20025;-67
2023/03/17 03:45:14;;;;;;;5.45;3.53;;;;;;;;;;5050938;28;20055;-66
2023/03/17 03:47:40;;;;;;;5.65;3.45;;;;;;;;;;5051208;28;20378;-66
2023/03/17 03:50:06;;;;;;;3.90;3.15;;;;;;;;;;5051175;28;20473;-66
2023/03/17 03:52:32;;;;;;;3.88;3.22;;;;;;;;;;5050660;28;20025;-66
2023/03/17 03:54:57;;;;;;;5.47;3.58;;;;;;;;;;5051016;28;20123;-66
2023/03/17 03:57:23;;;;;;;4.78;3.40;;;;;;;;;;5052206;28;20021;-66
2023/03/17 03:59:48;;;;;;;4.45;3.50;;;;;;;;;;5052313;28;20488;-66
2023/03/17 04:02:15;;;;;;;5.80;3.17;;;;;;;;;;5052193;28;20021;-66
2023/03/17 04:04:41;;;;;;;4.25;3.40;;;;;;;;;;5052402;28;20040;-66
2023/03/17 04:07:07;;;;;;;3.85;3.45;;;;;;;;;;5052048;28;20025;-66
2023/03/17 04:09:33;;;;;;;5.10;3.58;;;;;;;;;;5051590;28;20079;-66
2023/03/17 04:11:59;;;;;;;3.15;2.85;;;;;;;;;;5055050;28;20422;-65
2023/03/17 04:14:25;;;;;;;5.47;3.58;;;;;;;;;;5056135;28;20021;-66
2023/03/17 04:16:50;;;;;;;4.95;3.30;;;;;;;;;;5056172;28;20032;-66
2023/03/17 04:19:16;;;;;;;3.95;3.50;;;;;;;;;;5056569;28;20086;-66
2023/03/17 04:21:42;;;;;;;4.95;3.15;;;;;;;;;;5056272;28;20027;-66
2023/03/17 04:24:07;;;;;;;5.53;3.47;;;;;;;;;;5055962;28;20043;-66
2023/03/17 04:26:33;;;;;;;4.32;3.17;;;;;;;;;;5055886;28;20021;-66
2023/03/17 04:28:59;;;;;;;4.57;3.20;;;;;;;;;;5056138;28;20040;-66
2023/03/17 04:31:25;;;;;;;3.53;3.00;;;;;;;;;;5055771;28;20472;-66
2023/03/17 04:33:50;;;;;;;4.47;3.35;;;;;;;;;;5055725;28;20158;-66
2023/03/17 04:36:22;;;;;;;5.35;3.40;;;;;;;;;;5055826;28;20036;-66
2023/03/17 04:38:47;;;;;;;5.97;3.25;;;;;;;;;;5055684;28;20118;-66
2023/03/17 04:41:13;;;;;;;4.32;3.08;;;;;;;;;;5055958;28;20461;-66
2023/03/17 04:43:40;;;;;;;5.07;3.30;;;;;;;;;;5055508;28;20056;-66
2023/03/17 04:46:05;;;;;;;3.80;3.13;;;;;;;;;;5055480;28;20469;-66
2023/03/17 04:48:31;;;;;;;5.10;3.10;;;;;;;;;;5055462;28;20032;-66
2023/03/17 04:50:57;;;;;;;4.40;3.13;;;;;;;;;;5055752;28;20033;-66
2023/03/17 04:53:23;;;;;;;3.70;3.10;;;;;;;;;;5055370;28;20045;-66
2023/03/17 04:55:48;;;;;;;4.43;3.33;;;;;;;;;;5055401;28;20017;-66
2023/03/17 04:58:14;;;;;;;3.95;3.08;;;;;;;;;;5055320;28;20021;-66
2023/03/17 05:00:40;;;;;;;5.22;3.47;;;;;;;;;;5055256;28;20025;-66
2023/03/17 05:03:05;;;;;;;3.85;3.13;;;;;;;;;;5055496;28;20107;-66
2023/03/17 05:05:32;;;;;;;4.40;3.20;;;;;;;;;;5055206;28;20021;-66
2023/03/17 05:07:58;;;;;;;6.65;3.92;;;;;;;;;;5055450;28;20407;-66
2023/03/17 05:10:23;;;;;;;4.10;3.33;;;;;;;;;;5055138;28;20100;-67
2023/03/17 05:12:49;;;;;;;4.90;3.40;;;;;;;;;;5054974;28;20029;-67
2023/03/17 05:15:15;;;;;;;5.40;3.30;;;;;;;;;;5054969;28;20373;-67
2023/03/17 05:17:40;;;;;;;5.70;3.50;;;;;;;;;;5055108;28;20033;-67
2023/03/17 05:20:07;;;;;;;3.72;3.42;;;;;;;;;;5054816;28;20538;-67
2023/03/17 05:22:33;;;;;;;4.35;3.22;;;;;;;;;;5053901;28;20032;-66
2023/03/17 05:24:59;;;;;;;3.75;3.00;;;;;;;;;;5054691;28;20054;-66
2023/03/17 05:27:25;;;;;;;4.13;3.05;;;;;;;;;;5054567;28;20036;-66
2023/03/17 05:29:50;;;;;;;4.10;3.10;;;;;;;;;;5054643;28;20029;-66
2023/03/17 05:32:17;;;;;;;4.03;3.00;;;;;;;;;;5054849;28;20033;-66
2023/03/17 05:34:43;;;;;;;4.32;3.22;;;;;;;;;;5054839;28;20385;-66
2023/03/17 05:37:10;;;;;;;4.90;3.35;;;;;;;;;;5054546;28;20096;-66
2023/03/17 05:39:35;;;;;;;4.50;3.17;;;;;;;;;;5054241;28;20136;-66
2023/03/17 05:42:01;;;;;;;5.05;3.35;;;;;;;;;;5054752;28;20104;-66
2023/03/17 05:44:27;;;;;;;5.50;3.55;;;;;;;;;;5054689;28;20021;-68
2023/03/17 05:46:54;;;;;;;4.82;3.47;;;;;;;;;;5054592;28;20385;-66
2023/03/17 05:49:21;;;;;;;5.03;3.50;;;;;;;;;;5053112;28;20021;-67
2023/03/17 05:51:46;;;;;;;4.22;3.40;;;;;;;;;;5054217;28;20532;-67
2023/03/17 05:54:12;;;;;;;5.00;3.75;;;;;;;;;;5054255;28;20113;-66
2023/03/17 05:56:39;;;;;;;4.20;3.30;;;;;;;;;;5054358;28;20435;-66
2023/03/17 05:59:04;;;;;;;4.75;3.42;;;;;;;;;;5054119;28;20028;-66
2023/03/17 06:01:30;;;;;;;3.53;3.20;;;;;;;;;;5054230;28;20017;-66
2023/03/17 06:03:56;;;;;;;5.20;3.50;;;;;;;;;;5054171;28;20112;-67
2023/03/17 06:06:23;;;;;;;4.78;3.28;;;;;;;;;;5054068;28;20080;-67
2023/03/17 06:08:49;;;;;;;5.13;3.47;;;;;;;;;;5053935;28;20029;-68
2023/03/17 06:11:14;;;;;;;4.75;3.67;;;;;;;;;;5053010;28;20033;-68
2023/03/17 06:13:40;;;;;;;4.13;3.20;;;;;;;;;;5052560;28;20381;-67
2023/03/17 06:16:06;;;;;;;5.38;3.58;;;;;;;;;;5053916;28;20032;-68
2023/03/17 06:18:32;;;;;;;5.13;3.80;;;;;;;;;;5053673;28;20021;-67
2023/03/17 06:21:00;;;;;;;5.47;3.58;;;;;;;;;;5053615;28;20039;-68
2023/03/17 06:23:26;;;;;;;5.90;3.67;;;;;;;;;;5053715;28;20032;-70
2023/03/17 06:25:52;;;;;;;4.25;3.33;;;;;;;;;;5053599;28;20029;-70
2023/03/17 06:28:18;;;;;;;5.70;3.67;;;;;;;;;;5053697;28;20131;-68
2023/03/17 06:30:45;;;;;;;5.63;3.80;;;;;;;;;;5053919;28;20032;-69
2023/03/17 06:33:11;;;;;;;6.18;4.00;;;;;;;;;;5053609;28;20048;-69
2023/03/17 06:35:37;;;;;;;6.22;3.90;;;;;;;;;;5053102;28;20056;-70
2023/03/17 06:38:04;;;;;;;5.68;3.72;;;;;;;;;;5052617;28;20437;-70
2023/03/17 06:40:31;;;;;;;4.50;3.40;;;;;;;;;;5049882;28;20063;-67
2023/03/17 06:42:57;;;;;;;5.35;3.70;;;;;;;;;;5017192;28;20071;-70
2023/03/17 06:45:23;;;;;;;5.50;3.72;;;;;;;;;;5050077;28;20035;-69
2023/03/17 06:47:53;;;;;;;4.43;3.40;;;;;;;;;;5051965;28;20472;-71
2023/03/17 06:50:19;;;;;;;5.15;3.60;;;;;;;;;;5052707;28;20029;-67
2023/03/17 06:52:45;;;;;;;4.68;3.17;;;;;;;;;;5051741;28;20116;-68
2023/03/17 06:55:12;;;;;;;5.35;3.83;;;;;;;;;;5052807;28;20527;-71
2023/03/17 06:57:39;;;;;;;5.30;3.58;;;;;;;;;;5053473;28;20033;-68
2023/03/17 07:00:06;;;;;;;5.07;3.78;;;;;;;;;;5051833;28;20079;-68
2023/03/17 07:02:36;;;;;;;3.95;3.33;;;;;;;;;;5052915;28;20112;-68
2023/03/17 07:05:02;;;;;;;5.75;3.78;;;;;;;;;;5052935;28;20025;-71
2023/03/17 07:07:29;;;;;;;4.28;3.80;;;;;;;;;;5052902;28;20441;-67
2023/03/17 07:09:54;;;;;;;5.22;3.67;;;;;;;;;;5053021;28;20033;-68
2023/03/17 07:12:20;;;;;;;5.20;3.67;;;;;;;;;;5052692;28;20029;-68
2023/03/17 07:14:46;;;;;;;6.65;4.07;;;;;;;;;;5053099;28;20356;-67
2023/03/17 07:17:14;;;;;;;5.88;4.10;;;;;;;;;;5051272;28;20047;-69
2023/03/17 07:19:41;;;;;;;5.65;3.60;;;;;;;;;;5052832;28;20166;-69
2023/03/17 07:22:08;;;;;;;5.80;3.85;;;;;;;;;;5052665;28;20066;-68
2023/03/17 07:24:34;;;;;;;5.20;3.70;;;;;;;;;;5052668;28;20029;-70
2023/03/17 07:27:01;;;;;;;6.30;3.83;;;;;;;;;;5052485;28;20036;-69
2023/03/17 07:29:28;;;;;;;5.28;3.78;;;;;;;;;;5052426;28;20045;-68
2023/03/17 07:31:53;;;;;;;4.65;3.70;;;;;;;;;;5052510;28;20559;-67
2023/03/17 07:34:21;;;;;;;5.55;3.78;;;;;;;;;;5052400;28;20100;-67
2023/03/17 07:36:46;;;;;;;4.80;3.97;;;;;;;;;;5052633;28;20032;-68
2023/03/17 07:39:12;;;;;;;4.55;3.70;;;;;;;;;;5052130;28;20478;-68
2023/03/17 07:41:37;;;;;;;4.32;3.40;;;;;;;;;;5052201;28;20131;-69
2023/03/17 07:44:03;;;;;;;5.28;3.85;;;;;;;;;;5052372;28;20033;-69
2023/03/17 07:46:29;;;;;;;4.95;3.72;;;;;;;;;;5051905;28;20032;-68
2023/03/17 07:48:55;;;;;;;5.70;3.63;;;;;;;;;;5052591;28;20380;-68
2023/03/17 07:51:22;;;;;;;5.80;4.03;;;;;;;;;;5052155;28;20078;-68
2023/03/17 07:53:51;;;;;;;4.25;3.47;;;;;;;;;;5052230;28;20099;-69
2023/03/17 07:56:16;;;;;;;5.03;3.50;;;;;;;;;;5052265;28;20489;-68
2023/03/17 07:58:42;;;;;;;5.60;3.70;;;;;;;;;;5052505;28;20028;-68
2023/03/17 08:01:08;;;;;;;5.55;3.63;;;;;;;;;;5051781;28;20503;-69
2023/03/17 08:03:35;;;;;;;5.00;3.75;;;;;;;;;;5052226;28;20138;-68
2023/03/17 08:06:02;;;;;;;5.18;3.65;;;;;;;;;;5052024;28;20053;-68
2023/03/17 08:08:28;;;;;;;4.80;3.42;;;;;;;;;;5052131;28;20485;-68
2023/03/17 08:11:17;;;;;;;6.18;3.80;;;;;;;;;;5052159;28;20032;-69
2023/03/17 08:13:44;;;;;;;;;;;;;;;;;;5052243;28;20599;-69
2023/03/17 08:16:09;;;;;;;5.25;3.70;;;;;;;;;;5051959;28;20173;-69
2023/03/17 08:18:35;;;;;;;6.60;3.55;;;;;;;;;;5052194;28;20033;-68
2023/03/17 08:21:01;;;;;;;3.92;3.40;;;;;;;;;;5050604;28;20423;-68
2023/03/17 08:23:27;;;;;;;4.45;3.53;;;;;;;;;;5051978;28;20067;-69
2023/03/17 08:26:00;;;;;;;6.22;3.33;;;;;;;;;;5051864;28;20036;-69
2023/03/17 08:28:26;;;;;;;5.50;3.60;;;;;;;;;;5052168;28;20392;-70
2023/03/17 08:30:53;;;;;;;6.10;3.78;;;;;;;;;;5050574;28;20021;-68
2023/03/17 08:33:20;;;;;;;4.82;3.47;;;;;;;;;;5051821;28;20037;-69
2023/03/17 08:35:45;;;;;;;4.53;3.42;;;;;;;;;;5052128;28;20032;-69
2023/03/17 08:38:11;;;;;;;5.43;3.70;;;;;;;;;;5050487;28;20021;-69
2023/03/17 08:40:38;;;;;;;5.10;3.45;;;;;;;;;;5051677;28;20021;-68
2023/03/17 08:43:06;;;;;;;5.70;3.45;;;;;;;;;;5051744;28;20036;-68
2023/03/17 08:45:32;;;;;;;4.35;3.35;;;;;;;;;;5051915;28;20409;-68
2023/03/17 08:47:58;;;;;;;5.32;3.60;;;;;;;;;;5051946;28;20029;-67
2023/03/17 08:50:24;;;;;;;5.20;3.22;;;;;;;;;;5051738;28;20378;-68
2023/03/17 08:52:50;;;;;;;7.13;3.97;;;;;;;;;;5051570;28;20151;-67
2023/03/17 08:55:17;;;;;;;4.47;3.20;;;;;;;;;;5051585;28;20094;-69
2023/03/17 08:57:44;;;;;;;4.88;3.15;;;;;;;;;;5050937;28;20488;-68
2023/03/17 09:00:12;;;;;;;5.53;3.90;;;;;;;;;;5055198;28;20110;-67
2023/03/17 09:02:41;;;;;;;4.30;3.35;;;;;;;;;;5055224;28;20037;-67
2023/03/17 09:05:12;;;;;;;4.40;3.07;;;;;;;;;;5055346;28;20032;-67
2023/03/17 09:07:38;;;;;;;4.18;3.17;;;;;;;;;;5055149;28;20294;-69
2023/03/17 09:10:06;;;;;;;3.70;3.30;;;;;;;;;;5055012;28;20442;-69
2023/03/17 09:12:32;;;;;;;3.92;3.13;;;;;;;;;;5053710;28;20122;-66
2023/03/17 09:14:58;;;;;;;4.85;3.20;;;;;;;;;;5054998;28;20020;-67
2023/03/17 09:17:24;;;;;;;5.63;3.65;;;;;;;;;;5054793;28;20112;-67
2023/03/17 09:19:49;;;;;;;4.00;3.28;;;;;;;;;;5055214;28;20069;-66
2023/03/17 09:22:17;;;;;;;4.43;3.03;;;;;;;;;;5055085;28;20499;-67
2023/03/17 09:24:44;;;;;;;4.60;3.33;;;;;;;;;;5054837;28;20040;-68
2023/03/17 09:27:10;;;;;;;4.35;2.95;;;;;;;;;;5054885;28;20075;-69
2023/03/17 09:29:35;;;;;;;3.65;3.30;;;;;;;;;;5054675;28;20457;-68
2023/03/17 09:32:04;;;;;;;4.95;3.28;;;;;;;;;;5054667;28;20044;-67
2023/03/17 09:34:30;;;;;;;5.55;3.58;;;;;;;;;;5054881;28;20039;-68
2023/03/17 09:36:56;;;;;;;4.15;3.08;;;;;;;;;;5054830;28;20029;-68
2023/03/17 09:39:22;;;;;;;3.25;2.95;;;;;;;;;;5054493;28;20094;-67
2023/03/17 09:41:51;;;;;;;3.53;3.17;;;;;;;;;;5054769;28;20043;-67
2023/03/17 09:44:49;;;;;;;4.22;3.10;;;;;;;;;;5054701;28;20033;-67
2023/03/17 09:47:25;;;;;;;5.40;3.70;;;;;;;;;;5034440;28;20548;-66
2023/03/17 09:49:55;;;;;;;4.28;3.20;;;;;;;;;;5054690;28;20040;-67
2023/03/17 09:52:28;;;;;;;3.30;3.00;;;;;;;;;;5048043;28;20143;-68
2023/03/17 09:54:55;;;;;;;4.20;3.60;;;;;;;;;;5049311;28;20044;-67
2023/03/17 09:57:30;;;;;;;3.28;2.97;;;;;;;;;;5047826;28;20542;-68
2023/03/17 10:00:11;;;;;;;4.50;3.30;;;;;;;;;;5048882;28;20029;-67
2023/03/17 10:02:37;;;;;;;3.85;3.03;;;;;;;;;;5048818;28;20061;-67
2023/03/17 10:05:22;;;;;;;5.05;3.40;;;;;;;;;;5049207;28;20029;-68
2023/03/17 10:07:54;;;;;;;5.35;3.67;;;;;;;;;;5048975;28;20040;-68
2023/03/17 10:10:24;;;;;;;4.38;3.20;;;;;;;;;;5049748;28;20058;-67
2023/03/17 10:13:22;;;;;;;5.03;3.33;;;;;;;;;;5051480;28;20029;-67
2023/03/17 10:15:56;;;;;;;4.55;3.30;;;;;;;;;;5052075;28;20020;-67
2023/03/17 10:18:25;;;;;;;5.50;3.95;;;;;;;;;;5047638;28;20029;-67
2023/03/17 10:20:58;;;;;;;4.10;3.50;;;;;;;;;;5047790;28;20025;-68
2023/03/17 10:23:28;;;;;;;4.45;3.40;;;;;;;;;;5048436;28;20696;-68
2023/03/17 10:26:01;;;;;;;4.95;3.80;;;;;;;;;;5051436;28;20035;-68
2023/03/17 10:28:34;;;;;;;4.28;3.58;;;;;;;;;;5030745;28;20496;-67
2023/03/17 10:31:17;;;;;;;4.93;3.75;;;;;;;;;;5051430;28;20025;-67
2023/03/17 10:33:47;;;;;;;5.53;3.78;;;;;;;;;;5053447;28;20025;-67
2023/03/17 10:36:15;;;;;;;5.53;3.72;;;;;;;;;;5053435;28;20021;-67
2023/03/17 10:38:50;;;;;;;4.63;3.78;;;;;;;;;;5053171;28;20075;-66
2023/03/17 10:41:16;;;;;;;6.88;4.35;;;;;;;;;;5053259;28;20025;-67
2023/03/17 10:43:49;;;;;;;4.90;3.90;;;;;;;;;;5053182;28;20439;-67
2023/03/17 10:46:25;;;;;;;5.53;4.20;;;;;;;;;;5053070;28;20485;-67
2023/03/17 10:49:16;;;;;;;6.35;4.05;;;;;;;;;;5053398;28;20033;-68
2023/03/17 10:51:45;;;;;;;6.20;4.20;;;;;;;;;;5053806;28;20070;-69
2023/03/17 10:54:16;;;;;;;6.40;4.38;;;;;;;;;;5053177;28;20032;-67
2023/03/17 10:56:44;;;;;;;7.05;4.70;;;;;;;;;;5051698;28;20477;-66
2023/03/17 10:59:41;;;;;;;6.20;4.28;;;;;;;;;;5053102;28;20421;-66
2023/03/17 11:02:42;;;;;;;6.80;5.05;;;;;;;;;;5052579;28;20400;-68
2023/03/17 11:05:22;;;;;;;6.93;4.50;;;;;;;;;;5052837;28;20544;-68
2023/03/17 11:07:48;;;;;;;5.53;4.40;;;;;;;;;;5053380;28;20462;-68
2023/03/17 11:10:20;;;;;;;6.68;4.68;;;;;;;;;;5052704;28;20025;-68
2023/03/17 11:12:52;;;;;;;6.47;4.70;;;;;;;;;;5052797;28;20033;-68
2023/03/17 11:15:18;;;;;;;5.55;4.70;;;;;;;;;;5053051;28;20021;-68
2023/03/17 11:17:56;;;;;;;5.50;4.80;;;;;;;;;;5052959;28;20029;-67
2023/03/17 11:20:53;;;;;;;15.35;5.25;;;;;;;;;;5049557;28;20033;-68
2023/03/17 11:23:25;;;;;;;11.27;6.03;;;;;;;;;;5050581;28;20071;-68
2023/03/17 11:26:13;;;;;;;11.90;5.70;;;;;;;;;;5050408;28;20025;-67
2023/03/17 11:28:45;;;;;;;13.93;5.93;;;;;;;;;;5051318;28;20029;-67
2023/03/17 11:31:31;;;;;;;13.10;5.95;;;;;;;;;;5052591;28;20021;-67
2023/03/17 11:34:14;;;;;;;9.25;6.18;;;;;;;;;;5052474;28;20028;-68
2023/03/17 11:37:03;;;;;;;8.27;5.47;;;;;;;;;;5052431;28;20061;-68
2023/03/17 11:39:43;;;;;;;9.50;5.60;;;;;;;;;;5052335;28;20045;-68
2023/03/17 11:42:57;;;;;;;10.80;6.35;;;;;;;;;;5052627;28;20036;-68
2023/03/17 11:45:51;;;;;;;10.48;6.25;;;;;;;;;;5030075;28;20065;-69
2023/03/17 11:48:38;;;;;;;10.43;6.15;;;;;;;;;;5027471;28;20049;-69
2023/03/17 11:51:29;;;;;;;10.82;6.72;;;;;;;;;;5032018;28;20037;-68
2023/03/17 11:54:24;;;;;;;13.23;6.50;;;;;;;;;;5032581;28;20037;-69
2023/03/17 11:56:58;;;;;;;12.73;6.47;;;;;;;;;;5032225;28;20033;-68
2023/03/17 11:59:39;;;;;;;10.18;6.10;;;;;;;;;;5032419;28;20041;-69
2023/03/17 12:02:35;;;;;;;8.50;6.25;;;;;;;;;;5032247;28;20032;-68
2023/03/17 12:05:04;;;;;;;10.10;6.18;;;;;;;;;;5032249;28;20100;-68
2023/03/17 12:07:36;;;;;;;12.38;6.47;;;;;;;;;;5032001;28;20068;-68
2023/03/17 12:10:24;;;;;;;10.25;6.93;;;;;;;;;;5032130;28;20030;-68
2023/03/17 12:12:58;;;;;;;9.57;6.20;;;;;;;;;;5032387;28;20116;-68
2023/03/17 12:15:49;;;;;;;11.35;6.82;;;;;;;;;;5032217;28;20092;-68
2023/03/17 12:18:29;;;;;;;10.00;6.95;;;;;;;;;;5031491;28;20379;-68
2023/03/17 12:21:14;;;;;;;11.82;7.07;;;;;;;;;;5032150;28;20026;-68
2023/03/17 12:23:59;;;;;;;12.20;7.22;;;;;;;;;;5040331;28;20033;-69
2023/03/17 12:26:36;;;;;;;9.27;6.57;;;;;;;;;;5050573;28;20025;-68
2023/03/17 12:29:11;;;;;;;12.43;7.45;;;;;;;;;;5048625;28;20025;-68
2023/03/17 12:32:02;;;;;;;10.43;6.65;;;;;;;;;;5052388;28;20037;-70
2023/03/17 12:34:41;;;;;;;10.57;7.35;;;;;;;;;;5055929;28;20025;-69
2023/03/17 12:37:11;;;;;;;10.10;6.70;;;;;;;;;;5055637;28;20029;-69
2023/03/17 12:39:39;;;;;;;10.75;7.00;;;;;;;;;;5055588;28;20080;-68
2023/03/17 12:42:10;;;;;;;11.95;7.45;;;;;;;;;;5055945;28;20135;-68
2023/03/17 12:44:36;;;;;;;13.02;7.10;;;;;;;;;;5055619;28;20040;-68
2023/03/17 12:47:23;;;;;;;10.50;7.25;;;;;;;;;;5055713;28;20033;-69
2023/03/17 12:50:10;;;;;;;13.80;7.30;;;;;;;;;;5055443;28;20479;-67
2023/03/17 12:53:11;;;;;;;11.23;7.60;;;;;;;;;;5055479;28;20028;-68
2023/03/17 12:55:37;;;;;;;11.85;7.30;;;;;;;;;;5054939;28;20068;-69
2023/03/17 12:58:41;;;;;;;9.02;7.13;;;;;;;;;;5053606;28;20477;-68
2023/03/17 13:01:12;;;;;;;11.00;6.97;;;;;;;;;;5053735;28;20103;-68
2023/03/17 13:04:01;;;;;;;11.02;7.10;;;;;;;;;;5053627;28;20669;-68
2023/03/17 13:06:31;;;;;;;21.13;7.90;;;;;;;;;;5053531;28;20071;-67
2023/03/17 13:09:31;;;;;;;14.05;7.38;;;;;;;;;;5053798;28;20029;-67
2023/03/17 13:11:59;;;;;;;13.18;7.28;;;;;;;;;;5053420;28;20074;-67
2023/03/17 13:14:45;;;;;;;13.57;8.05;;;;;;;;;;5053543;28;20036;-71
2023/03/17 13:17:16;;;;;;;13.05;7.75;;;;;;;;;;5053614;28;20025;-67
2023/03/17 13:20:07;;;;;;;19.80;5.70;;;;;;;;;;5053481;28;20021;-65
2023/03/17 13:22:36;;;;;;;20.65;7.10;;;;;;;;;;5053318;28;20488;-65
2023/03/17 13:25:31;;;;;;;16.67;5.88;;;;;;;;;;5053755;28;20052;-69
2023/03/17 13:28:11;;;;;;;20.77;7.20;;;;;;;;;;5053129;28;20428;-66
2023/03/17 13:30:37;;;;;;;12.38;6.07;;;;;;;;;;5053457;28;20481;-66
2023/03/17 13:33:09;;;;;;;15.30;6.13;;;;;;;;;;5052433;28;20083;-67
2023/03/17 13:35:39;;;;;;;12.05;6.43;;;;;;;;;;5052836;28;20029;-64
2023/03/17 13:38:42;;;;;;;14.43;6.75;;;;;;;;;;5052795;28;20059;-66
2023/03/17 13:41:16;;;;;;;11.40;6.85;;;;;;;;;;5053223;28;20194;-65
2023/03/17 13:43:47;;;;;;;12.00;6.70;;;;;;;;;;5052404;28;20595;-66
2023/03/17 13:46:21;;;;;;;9.00;6.22;;;;;;;;;;5051124;28;20062;-67
2023/03/17 13:48:47;;;;;;;9.82;6.22;;;;;;;;;;5052683;28;20381;-70
2023/03/17 13:51:19;;;;;;;8.48;6.18;;;;;;;;;;5052740;28;20115;-67
2023/03/17 13:53:52;;;;;;;8.63;6.72;;;;;;;;;;5052553;28;20078;-66
2023/03/17 13:56:21;;;;;;;11.43;7.47;;;;;;;;;;5052672;28;20263;-66
2023/03/17 13:58:52;;;;;;;10.38;6.68;;;;;;;;;;5052539;28;20040;-68
2023/03/17 14:01:21;;;;;;;13.70;6.80;;;;;;;;;;5052625;28;20029;-67
2023/03/17 14:03:52;;;;;;;13.95;6.95;;;;;;;;;;5052547;28;20033;-67
2023/03/17 14:06:21;;;;;;;10.60;6.78;;;;;;;;;;5052330;28;20037;-69
2023/03/17 14:08:54;;;;;;;11.45;6.97;;;;;;;;;;5051423;28;20029;-67
2023/03/17 14:11:33;;;;;;;9.18;6.90;;;;;;;;;;5050541;28;20045;-66
2023/03/17 14:14:21;;;;;;;10.40;6.88;;;;;;;;;;5052327;28;20037;-67
2023/03/17 14:17:33;;;;;;;11.38;6.43;;;;;;;;;;5052232;28;20143;-66
2023/03/17 14:20:07;;;;;;;10.40;5.97;;;;;;;;;;5050988;28;20036;-66
2023/03/17 14:22:39;;;;;;;8.63;6.28;;;;;;;;;;5052406;28;20028;-67
2023/03/17 14:25:09;;;;;;;10.98;7.10;;;;;;;;;;5050951;28;20499;-67
2023/03/17 14:27:36;;;;;;;9.88;6.80;;;;;;;;;;5051923;28;20033;-66
2023/03/17 14:30:08;;;;;;;8.95;6.47;;;;;;;;;;5052018;28;20032;-67
2023/03/17 14:32:34;;;;;;;8.02;6.13;;;;;;;;;;5051798;28;20064;-66
2023/03/17 14:35:00;;;;;;;12.15;6.70;;;;;;;;;;5052018;28;20056;-67
2023/03/17 14:37:27;;;;;;;10.93;6.63;;;;;;;;;;5042466;28;20033;-67
2023/03/17 14:39:56;;;;;;;11.77;6.25;;;;;;;;;;5051448;28;20128;-68
2023/03/17 14:42:27;;;;;;;9.35;6.93;;;;;;;;;;5051690;28;20071;-67
2023/03/17 14:45:41;;;;;;;10.50;6.18;;;;;;;;;;5051738;28;20059;-66
2023/03/17 14:48:13;;;;;;;11.68;6.93;;;;;;;;;;5051659;28;20040;-67
2023/03/17 14:50:50;;;;;;;16.05;6.78;;;;;;;;;;5051625;28;20116;-68
2023/03/17 14:53:16;;;;;;;10.55;6.32;;;;;;;;;;5050717;28;20393;-68
2023/03/17 14:55:42;;;;;;;10.55;6.50;;;;;;;;;;5047323;28;20029;-68
2023/03/17 14:58:24;;;;;;;11.00;6.47;;;;;;;;;;5051495;28;20033;-68
2023/03/17 15:01:01;;;;;;;7.50;5.95;;;;;;;;;;5051478;28;20465;-67